DAL2424 KDTW-KTVC
Flight info
| Callsign | DAL2424 |
|---|---|
| Flight time | 0h 44m |
| Altitude | 30000 |
| Route | MIGGY3 HUBBY TVC |
| Aircraft | A319/M-SDE3FGHIRWY/LB1 |
Departure
| Time | 2026-04-23 00:11 |
|---|---|
| Airport | Detroit Metropolitan Wayne County Airport (KDTW) |
Arrival
| Time | 2026-04-23 00:55 |
|---|---|
| Airport | Cherry Capital Airport (KTVC) |
| Time | Latitude | Longitude | Altitude | Speed | Heading |
|---|---|---|---|---|---|
| 2026-04-22 23:32 | 42.20251 | -83.36245 | 648 ft | 0 kts | 47° |
| 2026-04-22 23:56 | 42.20240 | -83.36261 | 648 ft | 4 kts | 47° |
| 2026-04-22 23:56 | 42.20226 | -83.36282 | 648 ft | 3 kts | 47° |
| 2026-04-22 23:57 | 42.20207 | -83.36309 | 648 ft | 4 kts | 49° |
| 2026-04-22 23:57 | 42.20192 | -83.36337 | 648 ft | 4 kts | 73° |
| 2026-04-22 23:57 | 42.20192 | -83.36366 | 648 ft | 4 kts | 101° |
| 2026-04-22 23:57 | 42.20193 | -83.36378 | 648 ft | 0 kts | 101° |
| 2026-04-23 00:00 | 42.20193 | -83.36376 | 648 ft | 1 kts | 101° |
| 2026-04-23 00:01 | 42.20184 | -83.36312 | 648 ft | 13 kts | 101° |
| 2026-04-23 00:01 | 42.20165 | -83.36179 | 649 ft | 15 kts | 98° |
| 2026-04-23 00:01 | 42.20163 | -83.36025 | 648 ft | 20 kts | 89° |
| 2026-04-23 00:01 | 42.20167 | -83.35800 | 648 ft | 26 kts | 89° |
| 2026-04-23 00:02 | 42.20171 | -83.35556 | 648 ft | 26 kts | 89° |
| 2026-04-23 00:02 | 42.20175 | -83.35309 | 647 ft | 25 kts | 89° |
| 2026-04-23 00:02 | 42.20208 | -83.35180 | 649 ft | 14 kts | 28° |
| 2026-04-23 00:02 | 42.20297 | -83.35116 | 648 ft | 15 kts | 28° |
| 2026-04-23 00:03 | 42.20388 | -83.35048 | 648 ft | 15 kts | 28° |
| 2026-04-23 00:03 | 42.20486 | -83.35007 | 648 ft | 15 kts | 341° |
| 2026-04-23 00:03 | 42.20586 | -83.34984 | 647 ft | 16 kts | 29° |
| 2026-04-23 00:03 | 42.20689 | -83.34907 | 647 ft | 18 kts | 28° |
| 2026-04-23 00:04 | 42.20802 | -83.34824 | 647 ft | 19 kts | 28° |
| 2026-04-23 00:04 | 42.20854 | -83.34725 | 647 ft | 13 kts | 66° |
| 2026-04-23 00:04 | 42.20934 | -83.34646 | 647 ft | 18 kts | 28° |
| 2026-04-23 00:04 | 42.21079 | -83.34539 | 647 ft | 27 kts | 28° |
| 2026-04-23 00:05 | 42.21247 | -83.34415 | 647 ft | 28 kts | 29° |
| 2026-04-23 00:05 | 42.21416 | -83.34290 | 649 ft | 28 kts | 28° |
| 2026-04-23 00:05 | 42.21570 | -83.34175 | 648 ft | 15 kts | 28° |
| 2026-04-23 00:05 | 42.21676 | -83.34167 | 646 ft | 16 kts | 359° |
| 2026-04-23 00:06 | 42.21793 | -83.34169 | 646 ft | 17 kts | 359° |
| 2026-04-23 00:06 | 42.21902 | -83.34128 | 647 ft | 17 kts | 29° |
| 2026-04-23 00:06 | 42.22006 | -83.34051 | 646 ft | 17 kts | 28° |
| 2026-04-23 00:06 | 42.22112 | -83.33973 | 647 ft | 17 kts | 28° |
| 2026-04-23 00:07 | 42.22220 | -83.33894 | 647 ft | 18 kts | 28° |
| 2026-04-23 00:07 | 42.22330 | -83.33814 | 648 ft | 18 kts | 28° |
| 2026-04-23 00:07 | 42.22441 | -83.33733 | 648 ft | 18 kts | 28° |
| 2026-04-23 00:07 | 42.22556 | -83.33650 | 648 ft | 19 kts | 28° |
| 2026-04-23 00:08 | 42.22656 | -83.33575 | 648 ft | 14 kts | 29° |
| 2026-04-23 00:08 | 42.22741 | -83.33512 | 648 ft | 10 kts | 28° |
| 2026-04-23 00:08 | 42.22776 | -83.33518 | 646 ft | 0 kts | 315° |
| 2026-04-23 00:09 | 42.22778 | -83.33522 | 646 ft | 2 kts | 313° |
| 2026-04-23 00:09 | 42.22797 | -83.33563 | 646 ft | 7 kts | 298° |
| 2026-04-23 00:09 | 42.22816 | -83.33623 | 645 ft | 4 kts | 267° |
| 2026-04-23 00:10 | 42.22797 | -83.33640 | 647 ft | 3 kts | 205° |
| 2026-04-23 00:10 | 42.22775 | -83.33656 | 646 ft | 4 kts | 209° |
| 2026-04-23 00:10 | 42.22647 | -83.33750 | 647 ft | 56 kts | 208° |
| 2026-04-23 00:10 | 42.22087 | -83.34163 | 647 ft | 125 kts | 208° |
| 2026-04-23 00:11 | 42.21192 | -83.34821 | 926 ft | 152 kts | 208° |
| 2026-04-23 00:11 | 42.20271 | -83.35496 | 1624 ft | 150 kts | 207° |
| 2026-04-23 00:11 | 42.19418 | -83.36316 | 2252 ft | 153 kts | 228° |
| 2026-04-23 00:11 | 42.18860 | -83.37615 | 2706 ft | 171 kts | 245° |
| 2026-04-23 00:12 | 42.18325 | -83.39170 | 3063 ft | 195 kts | 245° |
| 2026-04-23 00:12 | 42.17699 | -83.40978 | 3279 ft | 231 kts | 245° |
| 2026-04-23 00:12 | 42.16971 | -83.43067 | 3512 ft | 256 kts | 245° |
| 2026-04-23 00:12 | 42.16205 | -83.45257 | 3742 ft | 260 kts | 245° |
| 2026-04-23 00:13 | 42.15429 | -83.47470 | 3980 ft | 262 kts | 245° |
| 2026-04-23 00:13 | 42.14647 | -83.49697 | 4233 ft | 264 kts | 245° |
| 2026-04-23 00:13 | 42.13989 | -83.51991 | 4476 ft | 263 kts | 258° |
| 2026-04-23 00:13 | 42.13897 | -83.54413 | 4725 ft | 263 kts | 278° |
| 2026-04-23 00:14 | 42.14416 | -83.56776 | 4976 ft | 266 kts | 298° |
| 2026-04-23 00:14 | 42.15481 | -83.58822 | 5861 ft | 268 kts | 309° |
| 2026-04-23 00:14 | 42.16619 | -83.60813 | 6908 ft | 269 kts | 308° |
| 2026-04-23 00:14 | 42.17750 | -83.62838 | 7917 ft | 271 kts | 308° |
| 2026-04-23 00:15 | 42.18882 | -83.64878 | 8962 ft | 273 kts | 308° |
| 2026-04-23 00:15 | 42.20020 | -83.66934 | 9983 ft | 274 kts | 308° |
| 2026-04-23 00:15 | 42.21270 | -83.68884 | 10806 ft | 280 kts | 318° |
| 2026-04-23 00:15 | 42.22938 | -83.70421 | 11157 ft | 302 kts | 334° |
| 2026-04-23 00:16 | 42.24967 | -83.71351 | 11826 ft | 313 kts | 347° |
| 2026-04-23 00:16 | 42.27137 | -83.71826 | 12631 ft | 318 kts | 349° |
| 2026-04-23 00:16 | 42.29337 | -83.72315 | 13474 ft | 322 kts | 348° |
| 2026-04-23 00:16 | 42.31562 | -83.72829 | 14232 ft | 327 kts | 348° |
| 2026-04-23 00:17 | 42.33814 | -83.73353 | 14957 ft | 330 kts | 348° |
| 2026-04-23 00:17 | 42.36091 | -83.73888 | 15674 ft | 334 kts | 348° |
| 2026-04-23 00:17 | 42.38396 | -83.74431 | 16392 ft | 338 kts | 348° |
| 2026-04-23 00:17 | 42.40725 | -83.74977 | 17103 ft | 342 kts | 348° |
| 2026-04-23 00:18 | 42.43080 | -83.75522 | 17813 ft | 345 kts | 348° |
| 2026-04-23 00:18 | 42.45463 | -83.76070 | 18505 ft | 349 kts | 348° |
| 2026-04-23 00:18 | 42.47859 | -83.76619 | 19189 ft | 350 kts | 348° |
| 2026-04-23 00:18 | 42.50266 | -83.77172 | 19854 ft | 352 kts | 348° |
| 2026-04-23 00:19 | 42.52692 | -83.77731 | 20512 ft | 355 kts | 348° |
| 2026-04-23 00:19 | 42.55133 | -83.78298 | 21160 ft | 357 kts | 348° |
| 2026-04-23 00:19 | 42.57590 | -83.78868 | 21792 ft | 360 kts | 348° |
| 2026-04-23 00:19 | 42.60061 | -83.79489 | 22417 ft | 362 kts | 347° |
| 2026-04-23 00:20 | 42.62531 | -83.80229 | 23046 ft | 365 kts | 345° |
| 2026-04-23 00:20 | 42.65008 | -83.81045 | 23655 ft | 368 kts | 345° |
| 2026-04-23 00:20 | 42.67499 | -83.81894 | 24158 ft | 370 kts | 345° |
| 2026-04-23 00:20 | 42.69970 | -83.82737 | 24653 ft | 372 kts | 345° |
| 2026-04-23 00:21 | 42.72488 | -83.83582 | 25146 ft | 374 kts | 345° |
| 2026-04-23 00:21 | 42.75029 | -83.84424 | 25625 ft | 376 kts | 344° |
| 2026-04-23 00:21 | 42.77491 | -83.85627 | 26090 ft | 378 kts | 334° |
| 2026-04-23 00:21 | 42.79735 | -83.87486 | 26566 ft | 380 kts | 323° |
| 2026-04-23 00:22 | 42.81708 | -83.89899 | 27045 ft | 382 kts | 317° |
| 2026-04-23 00:22 | 42.83614 | -83.92429 | 27477 ft | 384 kts | 317° |
| 2026-04-23 00:22 | 42.85539 | -83.94978 | 27924 ft | 387 kts | 317° |
| 2026-04-23 00:22 | 42.87474 | -83.97537 | 28392 ft | 389 kts | 317° |
| 2026-04-23 00:23 | 42.89419 | -84.00109 | 28891 ft | 390 kts | 317° |
| 2026-04-23 00:23 | 42.91367 | -84.02685 | 29452 ft | 389 kts | 317° |
| 2026-04-23 00:23 | 42.93312 | -84.05261 | 29927 ft | 390 kts | 317° |
| 2026-04-23 00:23 | 42.95255 | -84.07839 | 30032 ft | 385 kts | 317° |
| 2026-04-23 00:24 | 42.97128 | -84.10336 | 29976 ft | 369 kts | 316° |
| 2026-04-23 00:24 | 42.98334 | -84.11947 | 29788 ft | 363 kts | 316° |
| 2026-04-23 00:24 | 43.00112 | -84.14323 | 29508 ft | 354 kts | 317° |
| 2026-04-23 00:24 | 43.01863 | -84.16661 | 29212 ft | 350 kts | 317° |
| 2026-04-23 00:25 | 43.03593 | -84.18971 | 28785 ft | 346 kts | 317° |
| 2026-04-23 00:25 | 43.05308 | -84.21261 | 28343 ft | 343 kts | 317° |
| 2026-04-23 00:25 | 43.07010 | -84.23533 | 27897 ft | 341 kts | 317° |
| 2026-04-23 00:25 | 43.08704 | -84.25798 | 27456 ft | 339 kts | 317° |
| 2026-04-23 00:26 | 43.10385 | -84.28048 | 27019 ft | 337 kts | 317° |
| 2026-04-23 00:26 | 43.12052 | -84.30280 | 26557 ft | 335 kts | 317° |
| 2026-04-23 00:26 | 43.13712 | -84.32507 | 26103 ft | 333 kts | 317° |
| 2026-04-23 00:26 | 43.15363 | -84.34723 | 25655 ft | 331 kts | 317° |
| 2026-04-23 00:27 | 43.17007 | -84.36929 | 25204 ft | 330 kts | 317° |
| 2026-04-23 00:27 | 43.18639 | -84.39119 | 24752 ft | 328 kts | 317° |
| 2026-04-23 00:27 | 43.20264 | -84.41299 | 24307 ft | 326 kts | 317° |
| 2026-04-23 00:27 | 43.21881 | -84.43474 | 24063 ft | 325 kts | 317° |
| 2026-04-23 00:28 | 43.23503 | -84.45654 | 24029 ft | 328 kts | 318° |
| 2026-04-23 00:28 | 43.25282 | -84.47611 | 24029 ft | 329 kts | 326° |
| 2026-04-23 00:28 | 43.27124 | -84.49408 | 24029 ft | 329 kts | 326° |
| 2026-04-23 00:28 | 43.29013 | -84.51252 | 24026 ft | 329 kts | 326° |
| 2026-04-23 00:29 | 43.30853 | -84.53051 | 24036 ft | 329 kts | 325° |
| 2026-04-23 00:29 | 43.32715 | -84.54869 | 24032 ft | 328 kts | 325° |
| 2026-04-23 00:29 | 43.34571 | -84.56685 | 24030 ft | 328 kts | 325° |
| 2026-04-23 00:29 | 43.36423 | -84.58501 | 24023 ft | 327 kts | 325° |
| 2026-04-23 00:30 | 43.38279 | -84.60322 | 24023 ft | 327 kts | 325° |
| 2026-04-23 00:30 | 43.40131 | -84.62141 | 24024 ft | 327 kts | 325° |
| 2026-04-23 00:30 | 43.41984 | -84.63962 | 24026 ft | 327 kts | 325° |
| 2026-04-23 00:30 | 43.43862 | -84.65809 | 24028 ft | 327 kts | 325° |
| 2026-04-23 00:31 | 43.45686 | -84.67605 | 24017 ft | 327 kts | 325° |
| 2026-04-23 00:31 | 43.47539 | -84.69430 | 24019 ft | 327 kts | 325° |
| 2026-04-23 00:31 | 43.49393 | -84.71254 | 24027 ft | 328 kts | 325° |
| 2026-04-23 00:31 | 43.51246 | -84.73079 | 24030 ft | 328 kts | 325° |
| 2026-04-23 00:32 | 43.53100 | -84.74911 | 24031 ft | 328 kts | 325° |
| 2026-04-23 00:32 | 43.54948 | -84.76742 | 24026 ft | 328 kts | 325° |
| 2026-04-23 00:32 | 43.56800 | -84.78577 | 24030 ft | 328 kts | 325° |
| 2026-04-23 00:32 | 43.58651 | -84.80409 | 24032 ft | 328 kts | 325° |
| 2026-04-23 00:33 | 43.60503 | -84.82242 | 24030 ft | 328 kts | 325° |
| 2026-04-23 00:33 | 43.62354 | -84.84074 | 24033 ft | 327 kts | 325° |
| 2026-04-23 00:33 | 43.64204 | -84.85905 | 24035 ft | 327 kts | 325° |
| 2026-04-23 00:33 | 43.66055 | -84.87743 | 24033 ft | 327 kts | 325° |
| 2026-04-23 00:34 | 43.67907 | -84.89580 | 24036 ft | 327 kts | 325° |
| 2026-04-23 00:34 | 43.69750 | -84.91425 | 24035 ft | 328 kts | 322° |
| 2026-04-23 00:34 | 43.71427 | -84.93560 | 24033 ft | 328 kts | 317° |
| 2026-04-23 00:34 | 43.73060 | -84.95762 | 24045 ft | 328 kts | 317° |
| 2026-04-23 00:35 | 43.74696 | -84.97968 | 24047 ft | 328 kts | 317° |
| 2026-04-23 00:35 | 43.76329 | -85.00171 | 24039 ft | 328 kts | 317° |
| 2026-04-23 00:35 | 43.77959 | -85.02374 | 24038 ft | 328 kts | 317° |
| 2026-04-23 00:35 | 43.79589 | -85.04576 | 23823 ft | 326 kts | 317° |
| 2026-04-23 00:36 | 43.81205 | -85.06755 | 23579 ft | 324 kts | 317° |
| 2026-04-23 00:36 | 43.82815 | -85.08924 | 23309 ft | 322 kts | 317° |
| 2026-04-23 00:36 | 43.84423 | -85.11089 | 23037 ft | 321 kts | 317° |
| 2026-04-23 00:36 | 43.86019 | -85.13244 | 22764 ft | 321 kts | 317° |
| 2026-04-23 00:37 | 43.87613 | -85.15403 | 22500 ft | 320 kts | 317° |
| 2026-04-23 00:37 | 43.89199 | -85.17555 | 22239 ft | 319 kts | 317° |
| 2026-04-23 00:37 | 43.90781 | -85.19703 | 21975 ft | 318 kts | 317° |
| 2026-04-23 00:37 | 43.92359 | -85.21845 | 21717 ft | 317 kts | 317° |
| 2026-04-23 00:38 | 43.93930 | -85.23984 | 21469 ft | 316 kts | 316° |
| 2026-04-23 00:38 | 43.95493 | -85.26112 | 21214 ft | 314 kts | 316° |
| 2026-04-23 00:38 | 43.97044 | -85.28222 | 20963 ft | 309 kts | 316° |
| 2026-04-23 00:38 | 43.98549 | -85.30269 | 20625 ft | 305 kts | 316° |
| 2026-04-23 00:39 | 44.00057 | -85.32323 | 20259 ft | 303 kts | 316° |
| 2026-04-23 00:39 | 44.01555 | -85.34364 | 19892 ft | 301 kts | 316° |
| 2026-04-23 00:39 | 44.03044 | -85.36392 | 19526 ft | 299 kts | 316° |
| 2026-04-23 00:39 | 44.04523 | -85.38409 | 19165 ft | 297 kts | 316° |
| 2026-04-23 00:40 | 44.05995 | -85.40418 | 18804 ft | 296 kts | 316° |
| 2026-04-23 00:40 | 44.07465 | -85.42431 | 18434 ft | 296 kts | 316° |
| 2026-04-23 00:40 | 44.08925 | -85.44435 | 18037 ft | 295 kts | 316° |
| 2026-04-23 00:40 | 44.10378 | -85.46431 | 17674 ft | 292 kts | 316° |
| 2026-04-23 00:41 | 44.11819 | -85.48410 | 17340 ft | 290 kts | 316° |
| 2026-04-23 00:41 | 44.13251 | -85.50378 | 16992 ft | 288 kts | 316° |
| 2026-04-23 00:41 | 44.14672 | -85.52330 | 16658 ft | 286 kts | 316° |
| 2026-04-23 00:41 | 44.16085 | -85.54273 | 16319 ft | 285 kts | 316° |
| 2026-04-23 00:42 | 44.17492 | -85.56206 | 15984 ft | 283 kts | 316° |
| 2026-04-23 00:42 | 44.18890 | -85.58125 | 15656 ft | 282 kts | 316° |
| 2026-04-23 00:42 | 44.20284 | -85.60040 | 15302 ft | 281 kts | 316° |
| 2026-04-23 00:42 | 44.21744 | -85.61841 | 14951 ft | 280 kts | 324° |
| 2026-04-23 00:43 | 44.23442 | -85.63173 | 14604 ft | 280 kts | 333° |
| 2026-04-23 00:43 | 44.25196 | -85.64372 | 14250 ft | 281 kts | 333° |
| 2026-04-23 00:43 | 44.26946 | -85.65578 | 13888 ft | 281 kts | 333° |
| 2026-04-23 00:43 | 44.28692 | -85.66789 | 13500 ft | 280 kts | 333° |
| 2026-04-23 00:44 | 44.30433 | -85.68001 | 13125 ft | 279 kts | 333° |
| 2026-04-23 00:44 | 44.32167 | -85.69207 | 12765 ft | 277 kts | 333° |
| 2026-04-23 00:44 | 44.33892 | -85.70403 | 12405 ft | 276 kts | 333° |
| 2026-04-23 00:44 | 44.35608 | -85.71595 | 12037 ft | 275 kts | 333° |
| 2026-04-23 00:45 | 44.37321 | -85.72785 | 11672 ft | 274 kts | 333° |
| 2026-04-23 00:45 | 44.39025 | -85.73967 | 11307 ft | 273 kts | 333° |
| 2026-04-23 00:45 | 44.40727 | -85.75147 | 10934 ft | 273 kts | 333° |
| 2026-04-23 00:45 | 44.42428 | -85.76328 | 10559 ft | 272 kts | 333° |
| 2026-04-23 00:46 | 44.44120 | -85.77503 | 10171 ft | 272 kts | 333° |
| 2026-04-23 00:46 | 44.45814 | -85.78682 | 9782 ft | 272 kts | 333° |
| 2026-04-23 00:46 | 44.47502 | -85.79858 | 9374 ft | 270 kts | 333° |
| 2026-04-23 00:46 | 44.49182 | -85.81031 | 8977 ft | 269 kts | 333° |
| 2026-04-23 00:47 | 44.50851 | -85.82197 | 8579 ft | 267 kts | 333° |
| 2026-04-23 00:47 | 44.52513 | -85.83359 | 8172 ft | 266 kts | 333° |
| 2026-04-23 00:47 | 44.54165 | -85.84515 | 7778 ft | 265 kts | 333° |
| 2026-04-23 00:47 | 44.55815 | -85.85668 | 7367 ft | 265 kts | 333° |
| 2026-04-23 00:48 | 44.57464 | -85.86820 | 6948 ft | 264 kts | 334° |
| 2026-04-23 00:48 | 44.59109 | -85.87968 | 6536 ft | 264 kts | 334° |
| 2026-04-23 00:48 | 44.60750 | -85.89114 | 6081 ft | 263 kts | 334° |
| 2026-04-23 00:48 | 44.62385 | -85.90258 | 5657 ft | 262 kts | 334° |
| 2026-04-23 00:49 | 44.64007 | -85.91364 | 5457 ft | 252 kts | 339° |
| 2026-04-23 00:49 | 44.65657 | -85.91868 | 5394 ft | 236 kts | 358° |
| 2026-04-23 00:49 | 44.67243 | -85.91623 | 5297 ft | 226 kts | 15° |
| 2026-04-23 00:49 | 44.68689 | -85.90899 | 5207 ft | 223 kts | 20° |
| 2026-04-23 00:50 | 44.70144 | -85.90141 | 5112 ft | 222 kts | 20° |
| 2026-04-23 00:50 | 44.71592 | -85.89389 | 5010 ft | 222 kts | 20° |
| 2026-04-23 00:50 | 44.73041 | -85.88637 | 4902 ft | 222 kts | 20° |
| 2026-04-23 00:50 | 44.74430 | -85.87713 | 4797 ft | 221 kts | 40° |
| 2026-04-23 00:51 | 44.75244 | -85.85905 | 4596 ft | 225 kts | 77° |
| 2026-04-23 00:51 | 44.75250 | -85.83704 | 4249 ft | 226 kts | 94° |
| 2026-04-23 00:51 | 44.75134 | -85.81489 | 3837 ft | 229 kts | 94° |
| 2026-04-23 00:51 | 44.75025 | -85.79238 | 3457 ft | 231 kts | 94° |
| 2026-04-23 00:52 | 44.74924 | -85.76992 | 3134 ft | 228 kts | 95° |
| 2026-04-23 00:52 | 44.74828 | -85.74823 | 2829 ft | 216 kts | 95° |
| 2026-04-23 00:52 | 44.74737 | -85.72763 | 2549 ft | 205 kts | 95° |
| 2026-04-23 00:52 | 44.74651 | -85.70823 | 2312 ft | 192 kts | 95° |
| 2026-04-23 00:53 | 44.74569 | -85.68998 | 2036 ft | 182 kts | 95° |
| 2026-04-23 00:53 | 44.74493 | -85.67308 | 1813 ft | 162 kts | 94° |
| 2026-04-23 00:53 | 44.74426 | -85.65823 | 1600 ft | 143 kts | 94° |
| 2026-04-23 00:53 | 44.74366 | -85.64496 | 1402 ft | 130 kts | 93° |
| 2026-04-23 00:54 | 44.74309 | -85.63234 | 1234 ft | 129 kts | 93° |
| 2026-04-23 00:54 | 44.74250 | -85.61979 | 1075 ft | 129 kts | 94° |
| 2026-04-23 00:54 | 44.74196 | -85.60721 | 919 ft | 129 kts | 94° |
| 2026-04-23 00:54 | 44.74139 | -85.59459 | 738 ft | 129 kts | 94° |
| 2026-04-23 00:55 | 44.74081 | -85.58214 | 639 ft | 120 kts | 95° |
| 2026-04-23 00:55 | 44.74033 | -85.57238 | 632 ft | 76 kts | 94° |
| 2026-04-23 00:55 | 44.74010 | -85.56704 | 639 ft | 42 kts | 94° |
| 2026-04-23 00:55 | 44.73993 | -85.56443 | 633 ft | 14 kts | 110° |
| 2026-04-23 00:56 | 44.73904 | -85.56414 | 627 ft | 15 kts | 185° |
| 2026-04-23 00:56 | 44.73822 | -85.56452 | 627 ft | 11 kts | 246° |
| 2026-04-23 00:56 | 44.73823 | -85.56561 | 635 ft | 12 kts | 274° |
| 2026-04-23 00:56 | 44.73830 | -85.56692 | 627 ft | 17 kts | 273° |
| 2026-04-23 00:57 | 44.73839 | -85.56866 | 630 ft | 18 kts | 280° |
| 2026-04-23 00:57 | 44.73884 | -85.57037 | 636 ft | 19 kts | 292° |
| 2026-04-23 00:57 | 44.73925 | -85.57219 | 634 ft | 20 kts | 278° |
| 2026-04-23 00:57 | 44.73936 | -85.57416 | 628 ft | 21 kts | 274° |
| 2026-04-23 00:58 | 44.73941 | -85.57625 | 627 ft | 22 kts | 271° |
| 2026-04-23 00:58 | 44.73945 | -85.57771 | 627 ft | 9 kts | 265° |
| 2026-04-23 00:58 | 44.73892 | -85.57801 | 627 ft | 9 kts | 184° |
| 2026-04-23 00:58 | 44.73825 | -85.57808 | 631 ft | 9 kts | 184° |
| 2026-04-23 00:59 | 44.73789 | -85.57812 | 627 ft | 2 kts | 185° |
| 2026-04-23 00:59 | 44.73776 | -85.57822 | 631 ft | 2 kts | 229° |
| 2026-04-23 00:59 | 44.73775 | -85.57836 | 630 ft | 0 kts | 264° |
| 2026-04-23 00:59 | 44.73775 | -85.57844 | 629 ft | 2 kts | 266° |
| 2026-04-23 01:00 | 44.73774 | -85.57876 | 633 ft | 4 kts | 270° |
| 2026-04-23 01:00 | 44.73775 | -85.57898 | 627 ft | 0 kts | 271° |